Time;durP1;ratioP1;P1;durP2;ratioP2;P2;SDS_P1;SDS_P2;PMS_P1;PMS_P2;Temp;Humidity;BMP_temperature;BMP_pressure;BME280_temperature;BME280_humidity;BME280_pressure;Samples;Min_cycle;Max_cycle;Signal;HPM_P1;HPM_P2
2022/10/08 00:00:46;;;;;;;11.23;9.10;;;;;;;;;;4981355;28;20453;-56
2022/10/08 00:03:13;;;;;;;9.97;8.90;;;;;;;;;;4950949;28;20623;-54
2022/10/08 00:05:39;;;;;;;11.50;9.63;;;;;;;;;;4956863;28;20445;-56
2022/10/08 00:08:05;;;;;;;11.10;9.07;;;;;;;;;;4979212;28;20487;-56
2022/10/08 00:10:31;;;;;;;9.67;8.30;;;;;;;;;;4941612;28;20480;-56
2022/10/08 00:12:58;;;;;;;17.03;9.80;;;;;;;;;;4985828;28;20437;-56
2022/10/08 00:15:25;;;;;;;10.13;9.17;;;;;;;;;;4959171;28;20502;-56
2022/10/08 00:17:51;;;;;;;15.20;9.60;;;;;;;;;;4973349;28;20468;-61
2022/10/08 00:20:16;;;;;;;11.40;10.30;;;;;;;;;;4953379;28;20429;-56
2022/10/08 00:22:42;;;;;;;13.20;9.53;;;;;;;;;;4975547;28;20441;-56
2022/10/08 00:25:09;;;;;;;14.60;9.77;;;;;;;;;;4961439;28;20499;-56
2022/10/08 00:27:35;;;;;;;11.53;9.33;;;;;;;;;;4983060;28;20532;-56
2022/10/08 00:30:02;;;;;;;13.13;9.70;;;;;;;;;;4955300;28;20813;-55
2022/10/08 00:32:28;;;;;;;10.50;8.77;;;;;;;;;;4976931;28;20643;-55
2022/10/08 00:34:57;;;;;;;12.70;9.73;;;;;;;;;;4944080;28;20603;-55
2022/10/08 00:37:24;;;;;;;12.00;9.30;;;;;;;;;;4959562;28;20460;-55
2022/10/08 00:39:52;;;;;;;10.10;9.10;;;;;;;;;;4978434;28;20516;-56
2022/10/08 00:42:20;;;;;;;14.20;10.20;;;;;;;;;;4950178;28;20512;-56
2022/10/08 00:44:49;;;;;;;13.10;11.23;;;;;;;;;;4982940;28;20433;-55
2022/10/08 00:47:18;;;;;;;14.53;10.57;;;;;;;;;;4961661;28;20436;-54
2022/10/08 00:49:45;;;;;;;11.63;9.80;;;;;;;;;;4982517;28;20443;-56
2022/10/08 00:52:11;;;;;;;15.17;9.03;;;;;;;;;;4954711;28;20500;-55
2022/10/08 00:54:37;;;;;;;14.30;9.43;;;;;;;;;;5008475;28;20464;-55
2022/10/08 00:57:05;;;;;;;10.27;9.27;;;;;;;;;;4962254;28;20445;-55
2022/10/08 00:59:31;;;;;;;11.13;10.10;;;;;;;;;;5001584;28;20429;-55
2022/10/08 01:01:57;;;;;;;14.60;9.50;;;;;;;;;;4976329;28;20456;-56
2022/10/08 01:04:23;;;;;;;9.47;8.27;;;;;;;;;;4960334;28;20503;-56
2022/10/08 01:06:53;;;;;;;13.97;10.20;;;;;;;;;;4976819;28;20483;-56
2022/10/08 01:09:20;;;;;;;10.30;9.30;;;;;;;;;;4965802;28;20440;-56
2022/10/08 01:11:57;;;;;;;12.50;8.83;;;;;;;;;;4963284;28;20481;-56
2022/10/08 01:14:51;;;;;;;11.63;7.77;;;;;;;;;;4990936;28;20459;-57
2022/10/08 01:17:26;;;;;;;13.20;9.47;;;;;;;;;;4978672;28;20448;-56
2022/10/08 01:20:11;;;;;;;9.53;8.50;;;;;;;;;;4970556;28;20743;-56
2022/10/08 01:22:55;;;;;;;15.63;8.47;;;;;;;;;;4980972;28;20444;-56
2022/10/08 01:25:32;;;;;;;10.90;9.07;;;;;;;;;;4957074;28;20453;-56
2022/10/08 01:27:59;;;;;;;15.30;9.83;;;;;;;;;;5010981;28;20444;-54
2022/10/08 01:30:25;;;;;;;12.60;10.00;;;;;;;;;;4988566;28;20492;-56
2022/10/08 01:32:56;;;;;;;12.80;8.60;;;;;;;;;;4978523;28;20950;-56
2022/10/08 01:35:32;;;;;;;11.13;8.97;;;;;;;;;;4959525;28;20464;-56
2022/10/08 01:37:59;;;;;;;12.80;8.67;;;;;;;;;;4979116;28;20449;-56
2022/10/08 01:40:29;;;;;;;9.50;8.33;;;;;;;;;;4972343;28;20464;-54
2022/10/08 01:42:55;;;;;;;12.00;8.90;;;;;;;;;;4975162;28;20487;-56
2022/10/08 01:45:41;;;;;;;11.87;9.37;;;;;;;;;;4956053;28;20727;-56
2022/10/08 01:48:09;;;;;;;11.03;8.50;;;;;;;;;;4982650;28;20457;-56
2022/10/08 01:50:39;;;;;;;9.67;8.37;;;;;;;;;;4962504;28;20495;-55
2022/10/08 01:53:06;;;;;;;11.87;8.50;;;;;;;;;;4979297;28;20439;-55
2022/10/08 01:55:39;;;;;;;15.40;10.13;;;;;;;;;;4987912;28;20484;-56
2022/10/08 01:58:07;;;;;;;11.93;9.10;;;;;;;;;;4974614;28;20428;-55
2022/10/08 02:00:34;;;;;;;9.00;8.10;;;;;;;;;;4955065;28;20976;-55
2022/10/08 02:03:00;;;;;;;8.43;7.43;;;;;;;;;;4970954;28;20445;-55
2022/10/08 02:05:29;;;;;;;10.90;8.87;;;;;;;;;;4968638;28;20581;-55
2022/10/08 02:07:55;;;;;;;8.93;7.70;;;;;;;;;;4969187;28;20560;-56
2022/10/08 02:10:43;;;;;;;14.20;8.00;;;;;;;;;;4988349;28;21674;-56
2022/10/08 02:13:09;;;;;;;9.20;7.63;;;;;;;;;;4960616;28;20325;-56
2022/10/08 02:15:54;;;;;;;11.90;8.07;;;;;;;;;;4965505;28;21022;-55
2022/10/08 02:18:38;;;;;;;12.80;8.20;;;;;;;;;;4945031;28;20440;-56
2022/10/08 02:21:08;;;;;;;10.43;7.00;;;;;;;;;;4974893;28;20879;-56
2022/10/08 02:23:37;;;;;;;9.13;7.53;;;;;;;;;;4951435;28;20671;-56
2022/10/08 02:26:04;;;;;;;9.77;7.60;;;;;;;;;;4978654;28;20950;-55
2022/10/08 02:28:48;;;;;;;10.33;8.60;;;;;;;;;;4985282;28;20532;-55
2022/10/08 02:31:17;;;;;;;10.60;7.27;;;;;;;;;;4972441;28;20477;-56
2022/10/08 02:33:44;;;;;;;10.27;7.80;;;;;;;;;;4973816;28;20425;-55
2022/10/08 02:36:10;;;;;;;10.93;8.40;;;;;;;;;;4968540;28;20417;-56
2022/10/08 02:38:37;;;;;;;8.27;7.17;;;;;;;;;;4981906;28;21645;-55
2022/10/08 02:41:04;;;;;;;12.80;7.80;;;;;;;;;;4975785;28;20444;-56
2022/10/08 02:43:31;;;;;;;8.70;7.23;;;;;;;;;;4948990;28;20556;-56
2022/10/08 02:46:06;;;;;;;9.87;7.30;;;;;;;;;;4967375;28;20941;-56
2022/10/08 02:48:32;;;;;;;9.27;7.90;;;;;;;;;;5008274;28;20448;-55
2022/10/08 02:51:05;;;;;;;8.53;6.67;;;;;;;;;;4923776;28;20544;-55
2022/10/08 02:53:31;;;;;;;12.40;7.97;;;;;;;;;;4969810;28;20437;-55
2022/10/08 02:56:00;;;;;;;12.00;8.60;;;;;;;;;;4969292;28;20514;-54
2022/10/08 02:58:26;;;;;;;9.70;7.40;;;;;;;;;;4965815;28;20484;-54
2022/10/08 03:01:07;;;;;;;13.43;7.40;;;;;;;;;;4997565;28;20501;-56
2022/10/08 03:03:44;;;;;;;11.97;7.57;;;;;;;;;;4968717;28;20508;-55
2022/10/08 03:06:10;;;;;;;8.43;6.77;;;;;;;;;;4958041;28;20452;-55
2022/10/08 03:08:38;;;;;;;10.40;8.03;;;;;;;;;;4971750;28;21086;-56
2022/10/08 03:11:05;;;;;;;8.60;7.77;;;;;;;;;;4996875;28;20484;-55
2022/10/08 03:13:33;;;;;;;11.63;8.20;;;;;;;;;;4998215;28;20469;-55
2022/10/08 03:16:10;;;;;;;;;;;;;;;;;;;;;
2022/10/08 03:18:37;;;;;;;8.10;7.30;;;;;;;;;;4979868;28;20438;-56
2022/10/08 03:21:23;;;;;;;8.50;7.63;;;;;;;;;;4961034;28;21114;-54
2022/10/08 03:23:49;;;;;;;11.93;7.93;;;;;;;;;;4976838;28;20980;-56
2022/10/08 03:26:18;;;;;;;14.33;8.30;;;;;;;;;;4977094;28;20436;-56
2022/10/08 03:28:44;;;;;;;8.10;7.30;;;;;;;;;;4977548;28;20953;-57
2022/10/08 03:31:11;;;;;;;8.73;7.73;;;;;;;;;;4957351;28;20473;-56
2022/10/08 03:33:37;;;;;;;14.20;8.00;;;;;;;;;;4972646;28;21235;-55
2022/10/08 03:36:03;;;;;;;8.00;7.20;;;;;;;;;;4966759;28;21673;-56
2022/10/08 03:38:29;;;;;;;11.27;7.37;;;;;;;;;;4968181;28;20463;-55
2022/10/08 03:40:56;;;;;;;10.77;7.77;;;;;;;;;;4969911;28;20445;-55
2022/10/08 03:43:22;;;;;;;7.53;6.77;;;;;;;;;;4961323;28;20449;-55
2022/10/08 03:45:51;;;;;;;13.40;7.50;;;;;;;;;;4999512;28;20510;-56
2022/10/08 03:48:18;;;;;;;7.53;6.27;;;;;;;;;;4964773;28;20571;-56
2022/10/08 03:50:54;;;;;;;7.53;6.83;;;;;;;;;;4972384;28;20481;-57
2022/10/08 03:53:21;;;;;;;8.63;7.67;;;;;;;;;;4961483;28;20461;-56
2022/10/08 03:55:54;;;;;;;9.43;6.63;;;;;;;;;;4971635;28;20592;-55
2022/10/08 03:58:20;;;;;;;13.90;8.10;;;;;;;;;;4957888;28;20487;-55
2022/10/08 04:00:59;;;;;;;8.30;6.83;;;;;;;;;;4970629;28;21280;-56
2022/10/08 04:03:25;;;;;;;10.50;7.50;;;;;;;;;;5011231;28;20580;-54
2022/10/08 04:05:51;;;;;;;7.20;6.50;;;;;;;;;;4990743;28;20445;-56
2022/10/08 04:08:17;;;;;;;9.60;7.40;;;;;;;;;;4973461;28;20445;-55
2022/10/08 04:10:43;;;;;;;9.80;6.40;;;;;;;;;;4953535;28;20475;-56
2022/10/08 04:13:09;;;;;;;7.73;6.30;;;;;;;;;;4981561;28;20447;-56
2022/10/08 04:15:35;;;;;;;7.70;6.33;;;;;;;;;;4974271;28;20484;-56
2022/10/08 04:18:01;;;;;;;10.83;8.63;;;;;;;;;;4979055;28;20479;-54
2022/10/08 04:20:27;;;;;;;12.20;7.87;;;;;;;;;;4948832;28;20559;-55
2022/10/08 04:22:53;;;;;;;10.93;6.90;;;;;;;;;;4979899;28;20457;-55
2022/10/08 04:25:19;;;;;;;7.77;6.97;;;;;;;;;;4953383;28;21188;-56
2022/10/08 04:27:48;;;;;;;8.13;7.20;;;;;;;;;;4980460;28;20456;-56
2022/10/08 04:30:15;;;;;;;9.30;7.03;;;;;;;;;;4941062;28;20627;-55
2022/10/08 04:32:41;;;;;;;7.97;6.70;;;;;;;;;;4981293;28;20541;-57
2022/10/08 04:35:07;;;;;;;8.00;6.87;;;;;;;;;;4954594;28;20438;-55
2022/10/08 04:37:33;;;;;;;9.50;7.47;;;;;;;;;;4976173;28;20449;-55
2022/10/08 04:39:59;;;;;;;7.83;6.67;;;;;;;;;;4953661;28;20549;-57
2022/10/08 04:42:25;;;;;;;9.43;7.20;;;;;;;;;;4979598;28;20472;-55
2022/10/08 04:44:51;;;;;;;10.53;6.63;;;;;;;;;;4954679;28;20547;-57
2022/10/08 04:47:17;;;;;;;11.53;7.10;;;;;;;;;;4981988;28;20484;-56
2022/10/08 04:49:43;;;;;;;12.27;7.83;;;;;;;;;;4954596;28;20884;-56
2022/10/08 04:52:09;;;;;;;9.17;6.30;;;;;;;;;;4981260;28;20540;-56
2022/10/08 04:54:35;;;;;;;8.17;6.77;;;;;;;;;;4975983;28;20445;-56
2022/10/08 04:57:01;;;;;;;9.37;6.70;;;;;;;;;;4978085;28;20425;-56
2022/10/08 04:59:27;;;;;;;10.37;6.50;;;;;;;;;;4942155;28;21778;-56
2022/10/08 05:01:55;;;;;;;7.67;6.87;;;;;;;;;;4978641;28;20456;-55
2022/10/08 05:04:21;;;;;;;9.17;6.17;;;;;;;;;;4960486;28;20540;-55
2022/10/08 05:06:47;;;;;;;9.23;7.53;;;;;;;;;;4978292;28;20429;-54
2022/10/08 05:09:13;;;;;;;10.27;7.70;;;;;;;;;;4979872;28;20445;-55
2022/10/08 05:11:39;;;;;;;18.23;7.80;;;;;;;;;;4979000;28;20830;-55
2022/10/08 05:14:05;;;;;;;8.20;6.93;;;;;;;;;;4960981;28;21049;-56
2022/10/08 05:16:31;;;;;;;10.90;8.17;;;;;;;;;;4971599;28;20455;-55
2022/10/08 05:18:57;;;;;;;12.80;7.60;;;;;;;;;;4968436;28;20441;-55
2022/10/08 05:21:24;;;;;;;9.13;7.97;;;;;;;;;;4967473;28;20508;-62
2022/10/08 05:24:05;;;;;;;11.17;7.47;;;;;;;;;;4972103;28;20535;-55
2022/10/08 05:26:33;;;;;;;14.23;8.00;;;;;;;;;;4944604;28;20544;-54
2022/10/08 05:28:59;;;;;;;12.87;7.03;;;;;;;;;;4978988;28;20815;-53
2022/10/08 05:31:25;;;;;;;15.40;7.80;;;;;;;;;;4943702;28;20492;-55
2022/10/08 05:33:51;;;;;;;11.50;7.30;;;;;;;;;;5002125;28;20441;-54
2022/10/08 05:36:18;;;;;;;8.80;7.50;;;;;;;;;;4975938;28;20472;-54
2022/10/08 05:38:44;;;;;;;9.30;7.40;;;;;;;;;;4982142;28;20499;-54
2022/10/08 05:41:11;;;;;;;10.93;8.13;;;;;;;;;;4957996;28;20452;-55
2022/10/08 05:43:37;;;;;;;13.70;7.90;;;;;;;;;;4978680;28;20520;-55
2022/10/08 05:46:03;;;;;;;10.20;8.20;;;;;;;;;;4956040;28;20774;-55
2022/10/08 05:48:29;;;;;;;15.37;8.17;;;;;;;;;;4980411;28;20553;-54
2022/10/08 05:50:55;;;;;;;11.63;6.87;;;;;;;;;;4956241;28;20476;-55
2022/10/08 05:53:21;;;;;;;8.03;6.17;;;;;;;;;;4980943;28;20476;-55
2022/10/08 05:55:47;;;;;;;9.83;7.80;;;;;;;;;;4951759;28;20935;-54
2022/10/08 05:58:13;;;;;;;9.57;7.40;;;;;;;;;;4974530;28;20457;-54
2022/10/08 06:00:38;;;;;;;8.17;6.47;;;;;;;;;;4969987;28;20433;-54
2022/10/08 06:03:04;;;;;;;12.17;7.23;;;;;;;;;;4957016;28;20941;-54
2022/10/08 06:05:30;;;;;;;10.10;6.40;;;;;;;;;;4950213;28;20192;-54
2022/10/08 06:07:58;;;;;;;7.47;6.70;;;;;;;;;;4969827;28;20656;-55
2022/10/08 06:10:24;;;;;;;11.37;7.13;;;;;;;;;;4953537;28;20444;-53
2022/10/08 06:12:50;;;;;;;11.67;6.73;;;;;;;;;;4986974;28;20837;-53
2022/10/08 06:15:16;;;;;;;14.17;7.80;;;;;;;;;;4952350;28;21318;-54
2022/10/08 06:17:42;;;;;;;15.73;7.03;;;;;;;;;;4975155;28;20521;-54
2022/10/08 06:20:09;;;;;;;16.50;7.77;;;;;;;;;;4940655;28;22258;-55
2022/10/08 06:22:35;;;;;;;15.10;7.90;;;;;;;;;;4985344;28;21285;-55
2022/10/08 06:25:01;;;;;;;8.20;6.20;;;;;;;;;;4967548;28;20503;-55
2022/10/08 06:27:27;;;;;;;10.33;7.20;;;;;;;;;;4974707;28;21017;-55
2022/10/08 06:30:13;;;;;;;8.80;7.10;;;;;;;;;;4973822;28;20445;-55
2022/10/08 06:32:40;;;;;;;8.60;7.57;;;;;;;;;;4960088;28;20997;-55
2022/10/08 06:35:13;;;;;;;12.70;6.80;;;;;;;;;;4949499;28;20441;-55
2022/10/08 06:37:39;;;;;;;8.00;6.93;;;;;;;;;;4950464;28;20453;-54
2022/10/08 06:40:05;;;;;;;11.03;7.10;;;;;;;;;;4974886;28;20444;-55
2022/10/08 06:42:31;;;;;;;8.80;7.67;;;;;;;;;;4953523;28;20459;-54
2022/10/08 06:44:57;;;;;;;10.73;7.10;;;;;;;;;;4969751;28;20742;-55
2022/10/08 06:47:23;;;;;;;9.70;7.00;;;;;;;;;;4955888;28;20434;-54
2022/10/08 06:49:50;;;;;;;11.27;7.63;;;;;;;;;;4980137;28;20938;-53
2022/10/08 06:52:16;;;;;;;8.60;6.20;;;;;;;;;;4955324;28;20492;-54
2022/10/08 06:54:42;;;;;;;11.87;6.83;;;;;;;;;;4978046;28;20429;-55
2022/10/08 06:57:07;;;;;;;11.37;6.90;;;;;;;;;;4979244;28;20564;-55
2022/10/08 06:59:33;;;;;;;12.53;7.40;;;;;;;;;;4985663;28;21052;-55
2022/10/08 07:01:59;;;;;;;7.23;5.50;;;;;;;;;;4948260;28;20976;-56
2022/10/08 07:04:25;;;;;;;10.23;5.87;;;;;;;;;;4976283;28;21209;-56
2022/10/08 07:06:51;;;;;;;11.17;6.10;;;;;;;;;;4958143;28;20958;-55
2022/10/08 07:09:17;;;;;;;8.50;5.60;;;;;;;;;;4980762;28;20461;-55
2022/10/08 07:11:43;;;;;;;8.73;5.73;;;;;;;;;;4968519;28;20483;-54
2022/10/08 07:14:09;;;;;;;6.77;4.90;;;;;;;;;;4950814;28;20449;-55
2022/10/08 07:16:35;;;;;;;10.10;5.40;;;;;;;;;;4972656;28;20457;-55
2022/10/08 07:19:02;;;;;;;7.33;5.73;;;;;;;;;;4948383;28;20547;-55
2022/10/08 07:21:28;;;;;;;5.70;4.00;;;;;;;;;;4972982;28;20515;-55
2022/10/08 07:23:54;;;;;;;10.80;4.70;;;;;;;;;;4959315;28;20448;-55
2022/10/08 07:26:21;;;;;;;7.80;5.30;;;;;;;;;;4975375;28;20493;-54
2022/10/08 07:28:51;;;;;;;7.80;4.33;;;;;;;;;;4964795;28;20437;-55
2022/10/08 07:31:25;;;;;;;6.63;4.00;;;;;;;;;;4988411;28;20472;-54
2022/10/08 07:33:51;;;;;;;4.30;3.57;;;;;;;;;;4969688;28;20476;-55
2022/10/08 07:36:18;;;;;;;8.33;4.33;;;;;;;;;;4985853;28;20790;-55
2022/10/08 07:38:44;;;;;;;13.87;3.90;;;;;;;;;;4952606;28;20514;-55
2022/10/08 07:41:10;;;;;;;5.50;3.50;;;;;;;;;;4978829;28;20462;-55
2022/10/08 07:43:39;;;;;;;8.03;4.43;;;;;;;;;;4988276;28;20434;-54
2022/10/08 07:46:05;;;;;;;6.57;4.77;;;;;;;;;;4983657;28;20449;-55
2022/10/08 07:48:31;;;;;;;5.33;3.10;;;;;;;;;;4960555;28;20447;-56
2022/10/08 07:51:05;;;;;;;5.97;3.83;;;;;;;;;;4987470;28;20504;-55
2022/10/08 07:53:31;;;;;;;5.90;2.57;;;;;;;;;;4955977;28;21584;-55
2022/10/08 07:55:58;;;;;;;4.30;3.20;;;;;;;;;;4970381;28;20452;-55
2022/10/08 07:58:23;;;;;;;9.20;4.50;;;;;;;;;;4951318;28;20565;-56
2022/10/08 08:00:49;;;;;;;12.03;3.90;;;;;;;;;;4967123;28;21374;-55
2022/10/08 08:03:15;;;;;;;4.70;4.03;;;;;;;;;;4955918;28;20460;-55
2022/10/08 08:05:41;;;;;;;5.70;4.30;;;;;;;;;;4979180;28;21878;-55
2022/10/08 08:08:07;;;;;;;10.60;4.40;;;;;;;;;;4956683;28;20461;-54
2022/10/08 08:10:33;;;;;;;9.77;6.20;;;;;;;;;;4983220;28;21166;-54
2022/10/08 08:12:59;;;;;;;4.90;4.37;;;;;;;;;;4943187;28;20448;-54
2022/10/08 08:15:25;;;;;;;5.90;2.70;;;;;;;;;;4977958;28;20463;-54
2022/10/08 08:17:51;;;;;;;5.00;2.33;;;;;;;;;;4967200;28;20603;-54
2022/10/08 08:20:17;;;;;;;6.80;2.97;;;;;;;;;;4973670;28;20444;-53
2022/10/08 08:22:43;;;;;;;4.10;2.93;;;;;;;;;;4952216;28;20445;-53
2022/10/08 08:25:09;;;;;;;12.30;4.20;;;;;;;;;;4969183;28;20445;-56
2022/10/08 08:27:35;;;;;;;6.90;3.07;;;;;;;;;;4946460;28;21042;-53
2022/10/08 08:30:01;;;;;;;3.73;2.63;;;;;;;;;;4974963;28;20460;-55
2022/10/08 08:32:27;;;;;;;8.20;2.60;;;;;;;;;;4929219;28;20943;-53
2022/10/08 08:34:53;;;;;;;3.60;2.47;;;;;;;;;;4982220;28;20648;-56
2022/10/08 08:37:21;;;;;;;6.80;2.47;;;;;;;;;;4957848;28;20476;-55
2022/10/08 08:39:48;;;;;;;5.50;2.50;;;;;;;;;;4969439;28;20429;-55
2022/10/08 08:42:35;;;;;;;6.83;2.37;;;;;;;;;;4917111;28;1061094;-54
2022/10/08 08:45:03;;;;;;;11.47;2.50;;;;;;;;;;4982431;28;20185;-52
2022/10/08 08:47:36;;;;;;;8.23;2.30;;;;;;;;;;4939837;28;20471;-56
2022/10/08 08:50:04;;;;;;;4.27;2.10;;;;;;;;;;4985575;28;20452;-55
2022/10/08 08:52:32;;;;;;;9.40;2.80;;;;;;;;;;4959331;28;20484;-55
2022/10/08 08:54:59;;;;;;;5.60;2.10;;;;;;;;;;4975806;28;20464;-57
2022/10/08 08:57:38;;;;;;;9.77;3.00;;;;;;;;;;4939951;28;20779;-54
2022/10/08 09:00:05;;;;;;;3.07;2.10;;;;;;;;;;5005684;28;20444;-54
2022/10/08 09:02:37;;;;;;;4.40;2.20;;;;;;;;;;4958423;28;20817;-55
2022/10/08 09:05:04;;;;;;;10.93;2.57;;;;;;;;;;5007437;28;20437;-54
2022/10/08 09:07:52;;;;;;;3.83;2.07;;;;;;;;;;4958531;28;21233;-55
2022/10/08 09:10:18;;;;;;;4.43;2.00;;;;;;;;;;4983254;28;20433;-55
2022/10/08 09:12:44;;;;;;;6.97;1.87;;;;;;;;;;4945861;28;24044;-55
2022/10/08 09:15:15;;;;;;;6.50;1.97;;;;;;;;;;4982960;28;20449;-56
2022/10/08 09:17:41;;;;;;;4.37;2.30;;;;;;;;;;4953080;28;20958;-55
2022/10/08 09:20:07;;;;;;;6.70;2.07;;;;;;;;;;4971423;28;20437;-56
2022/10/08 09:22:37;;;;;;;5.20;2.10;;;;;;;;;;4955719;28;20448;-55
2022/10/08 09:25:07;;;;;;;3.80;2.20;;;;;;;;;;4971681;28;21914;-55
2022/10/08 09:27:43;;;;;;;4.47;2.40;;;;;;;;;;4956167;28;20837;-55
2022/10/08 09:30:24;;;;;;;14.03;1.97;;;;;;;;;;4980454;28;20447;-55
2022/10/08 09:32:50;;;;;;;6.70;2.50;;;;;;;;;;4949424;28;21137;-55
2022/10/08 09:35:16;;;;;;;12.93;2.17;;;;;;;;;;5014173;28;20503;-56
2022/10/08 09:37:45;;;;;;;6.23;2.40;;;;;;;;;;4957193;28;20481;-54
2022/10/08 09:40:11;;;;;;;8.93;2.37;;;;;;;;;;5002332;28;20599;-55
2022/10/08 09:42:37;;;;;;;4.07;2.13;;;;;;;;;;4944803;28;20461;-53
2022/10/08 09:45:04;;;;;;;17.03;2.70;;;;;;;;;;4971990;28;20268;-54
2022/10/08 09:47:30;;;;;;;8.63;2.77;;;;;;;;;;4944122;28;20463;-54
2022/10/08 09:50:02;;;;;;;9.17;2.10;;;;;;;;;;4978462;28;20435;-55
2022/10/08 09:52:28;;;;;;;5.23;2.07;;;;;;;;;;4944374;28;21023;-55
2022/10/08 09:54:54;;;;;;;5.20;2.50;;;;;;;;;;4977438;28;20452;-56
2022/10/08 09:57:20;;;;;;;4.20;2.00;;;;;;;;;;4969578;28;20556;-55
2022/10/08 09:59:53;;;;;;;6.40;1.77;;;;;;;;;;5004135;28;20595;-55
2022/10/08 10:02:29;;;;;;;5.87;1.80;;;;;;;;;;4949232;28;20445;-56
2022/10/08 10:04:55;;;;;;;3.87;2.33;;;;;;;;;;4976509;28;20436;-54
2022/10/08 10:07:21;;;;;;;7.93;2.03;;;;;;;;;;4948695;28;20815;-54
2022/10/08 10:09:51;;;;;;;13.27;2.30;;;;;;;;;;4981161;28;20560;-56
2022/10/08 10:12:28;;;;;;;9.10;2.43;;;;;;;;;;4944658;28;20511;-56
2022/10/08 10:14:56;;;;;;;3.63;1.67;;;;;;;;;;4974180;28;20448;-53
2022/10/08 10:17:30;;;;;;;4.87;1.97;;;;;;;;;;4969682;28;20440;-53
2022/10/08 10:19:58;;;;;;;8.87;2.63;;;;;;;;;;4951951;28;20485;-54
2022/10/08 10:22:29;;;;;;;5.60;2.20;;;;;;;;;;4975278;28;20445;-54
2022/10/08 10:24:56;;;;;;;4.40;2.50;;;;;;;;;;4996784;28;20448;-56
2022/10/08 10:27:22;;;;;;;6.23;2.37;;;;;;;;;;4982742;28;20519;-55
2022/10/08 10:30:11;;;;;;;5.17;2.57;;;;;;;;;;4962344;28;20437;-55
2022/10/08 10:32:38;;;;;;;6.30;2.17;;;;;;;;;;4977952;28;21104;-55
2022/10/08 10:35:11;;;;;;;5.80;2.13;;;;;;;;;;4953002;28;20453;-55
2022/10/08 10:37:44;;;;;;;6.60;2.60;;;;;;;;;;4974830;28;20476;-54
2022/10/08 10:40:10;;;;;;;6.97;3.00;;;;;;;;;;4991043;28;20442;-55
2022/10/08 10:42:36;;;;;;;6.90;2.60;;;;;;;;;;4958585;28;20519;-55
2022/10/08 10:45:29;;;;;;;5.40;2.03;;;;;;;;;;4993238;28;20456;-55
2022/10/08 10:47:56;;;;;;;5.87;2.63;;;;;;;;;;4977833;28;20468;-55
2022/10/08 10:50:24;;;;;;;6.87;2.50;;;;;;;;;;4947713;28;20446;-55
2022/10/08 10:52:54;;;;;;;6.67;1.80;;;;;;;;;;4994588;28;20445;-57
2022/10/08 10:55:25;;;;;;;5.73;2.17;;;;;;;;;;4954637;28;20510;-55
2022/10/08 10:58:07;;;;;;;7.13;1.97;;;;;;;;;;4984917;28;20496;-56
2022/10/08 11:00:38;;;;;;;3.37;1.70;;;;;;;;;;4977206;28;20483;-54
2022/10/08 11:03:04;;;;;;;8.17;2.20;;;;;;;;;;4988163;28;21132;-55
2022/10/08 11:05:31;;;;;;;3.00;1.67;;;;;;;;;;4958481;28;20461;-54
2022/10/08 11:07:56;;;;;;;5.33;1.93;;;;;;;;;;4982575;28;20481;-56
2022/10/08 11:10:24;;;;;;;6.23;2.27;;;;;;;;;;4960026;28;20945;-57
2022/10/08 11:13:08;;;;;;;5.80;1.90;;;;;;;;;;4977956;28;20516;-56
2022/10/08 11:15:53;;;;;;;6.67;1.90;;;;;;;;;;4933051;28;21271;-55
2022/10/08 11:18:31;;;;;;;8.17;1.93;;;;;;;;;;4978736;28;20934;-56
2022/10/08 11:21:00;;;;;;;6.37;2.33;;;;;;;;;;4944298;28;20961;-56
2022/10/08 11:23:41;;;;;;;4.07;1.70;;;;;;;;;;4954456;28;20611;-56
2022/10/08 11:26:16;;;;;;;5.57;1.90;;;;;;;;;;4984513;28;20523;-55
2022/10/08 11:28:42;;;;;;;6.40;2.70;;;;;;;;;;4961159;28;20449;-56
2022/10/08 11:31:27;;;;;;;4.43;1.73;;;;;;;;;;4980224;28;20493;-56
2022/10/08 11:33:54;;;;;;;6.33;2.10;;;;;;;;;;4952144;28;20174;-58
2022/10/08 11:36:20;;;;;;;5.37;2.20;;;;;;;;;;4997725;28;20447;-59
2022/10/08 11:38:49;;;;;;;5.67;1.90;;;;;;;;;;4952249;28;20539;-58
2022/10/08 11:41:21;;;;;;;5.43;1.90;;;;;;;;;;4942829;28;20826;-61
2022/10/08 11:43:47;;;;;;;6.20;1.70;;;;;;;;;;4975575;28;20433;-59
2022/10/08 11:46:27;;;;;;;6.10;1.80;;;;;;;;;;4959493;28;20934;-57
2022/10/08 11:48:53;;;;;;;4.10;1.80;;;;;;;;;;4980038;28;20225;-60
2022/10/08 11:51:20;;;;;;;5.67;2.50;;;;;;;;;;4964346;28;20572;-58
2022/10/08 11:54:01;;;;;;;5.20;2.13;;;;;;;;;;4960771;28;20436;-57
2022/10/08 11:56:27;;;;;;;6.00;2.00;;;;;;;;;;4958153;28;23683;-58
2022/10/08 11:58:53;;;;;;;7.00;2.67;;;;;;;;;;4968072;28;20452;-59
2022/10/08 12:01:21;;;;;;;5.20;2.20;;;;;;;;;;5002057;28;20444;-56
2022/10/08 12:03:59;;;;;;;6.23;2.30;;;;;;;;;;4967174;28;20543;-59
2022/10/08 12:06:25;;;;;;;6.27;1.73;;;;;;;;;;4966232;28;20432;-57
2022/10/08 12:08:51;;;;;;;5.70;2.10;;;;;;;;;;4972337;28;20546;-57
2022/10/08 12:11:34;;;;;;;2.40;1.63;;;;;;;;;;4972575;28;20613;-57
2022/10/08 12:14:16;;;;;;;7.67;2.10;;;;;;;;;;5003256;28;20448;-60
2022/10/08 12:16:49;;;;;;;6.30;2.03;;;;;;;;;;4963178;28;20494;-60
2022/10/08 12:19:36;;;;;;;4.57;1.87;;;;;;;;;;4964199;28;20560;-59
2022/10/08 12:22:10;;;;;;;7.60;2.40;;;;;;;;;;4943387;28;20444;-58
2022/10/08 12:24:36;;;;;;;5.13;1.57;;;;;;;;;;4975470;28;20440;-60
2022/10/08 12:27:18;;;;;;;3.70;1.50;;;;;;;;;;4970728;28;22484;-60
2022/10/08 12:29:56;;;;;;;5.83;1.90;;;;;;;;;;4975295;28;20464;-59
2022/10/08 12:32:23;;;;;;;3.60;1.97;;;;;;;;;;4950709;28;20473;-58
2022/10/08 12:34:49;;;;;;;7.20;3.40;;;;;;;;;;4990672;28;20433;-57
2022/10/08 12:37:35;;;;;;;8.20;3.07;;;;;;;;;;4954151;28;20467;-60
2022/10/08 12:40:03;;;;;;;3.50;1.70;;;;;;;;;;4951042;28;20550;-58
2022/10/08 12:42:32;;;;;;;3.70;2.07;;;;;;;;;;4969564;28;20526;-57
2022/10/08 12:45:04;;;;;;;6.87;1.87;;;;;;;;;;4970545;28;20505;-59
2022/10/08 12:47:33;;;;;;;4.93;2.07;;;;;;;;;;4972391;28;21144;-58
2022/10/08 12:50:15;;;;;;;4.37;1.97;;;;;;;;;;4932493;28;20538;-60
2022/10/08 12:52:41;;;;;;;4.40;1.70;;;;;;;;;;4971933;28;20490;-60
2022/10/08 12:55:27;;;;;;;4.90;1.80;;;;;;;;;;4976829;28;20440;-61
2022/10/08 12:57:54;;;;;;;3.50;1.63;;;;;;;;;;4951175;28;20883;-59
2022/10/08 13:00:20;;;;;;;3.30;1.53;;;;;;;;;;4977698;28;20433;-58
2022/10/08 13:02:58;;;;;;;2.33;1.57;;;;;;;;;;4948644;28;20541;-60
2022/10/08 13:05:24;;;;;;;5.23;1.67;;;;;;;;;;4973102;28;20430;-59
2022/10/08 13:07:50;;;;;;;2.67;1.83;;;;;;;;;;4967155;28;20438;-61
2022/10/08 13:10:20;;;;;;;2.60;1.57;;;;;;;;;;4974731;28;20459;-61
2022/10/08 13:12:58;;;;;;;3.93;1.50;;;;;;;;;;4952645;28;20528;-59
2022/10/08 13:15:25;;;;;;;6.10;1.60;;;;;;;;;;4966946;28;20441;-60
2022/10/08 13:17:52;;;;;;;4.57;1.40;;;;;;;;;;4937794;28;21493;-59
2022/10/08 13:20:18;;;;;;;3.50;1.43;;;;;;;;;;4975670;28;20456;-59
2022/10/08 13:22:44;;;;;;;7.13;1.90;;;;;;;;;;4948077;28;24281;-58
2022/10/08 13:25:29;;;;;;;3.63;1.57;;;;;;;;;;5010963;28;20483;-59
2022/10/08 13:28:08;;;;;;;8.90;1.90;;;;;;;;;;4950056;28;20758;-58
2022/10/08 13:30:34;;;;;;;5.73;1.33;;;;;;;;;;4978652;28;20484;-58
2022/10/08 13:33:10;;;;;;;9.13;1.90;;;;;;;;;;4955512;28;20539;-58
2022/10/08 13:35:36;;;;;;;3.53;1.40;;;;;;;;;;4975790;28;20444;-57
2022/10/08 13:38:02;;;;;;;3.03;1.50;;;;;;;;;;4979275;28;20445;-58
2022/10/08 13:40:28;;;;;;;5.83;1.60;;;;;;;;;;4982546;28;20465;-58
2022/10/08 13:42:54;;;;;;;4.43;1.63;;;;;;;;;;4960640;28;20474;-58
2022/10/08 13:45:27;;;;;;;4.03;1.10;;;;;;;;;;4987220;28;20503;-59
2022/10/08 13:47:53;;;;;;;4.40;1.87;;;;;;;;;;4948549;28;21157;-57
2022/10/08 13:50:20;;;;;;;5.13;1.40;;;;;;;;;;4978853;28;20448;-58
2022/10/08 13:52:53;;;;;;;2.80;1.23;;;;;;;;;;4946047;28;21426;-57
2022/10/08 13:55:22;;;;;;;3.50;1.40;;;;;;;;;;4962652;28;20524;-58
2022/10/08 13:57:48;;;;;;;5.07;1.73;;;;;;;;;;4961333;28;20441;-58
2022/10/08 14:00:14;;;;;;;4.63;1.43;;;;;;;;;;4980275;28;20449;-58
2022/10/08 14:02:40;;;;;;;6.50;1.43;;;;;;;;;;4942479;28;20555;-58
2022/10/08 14:05:06;;;;;;;2.73;1.20;;;;;;;;;;4950240;28;20571;-57
2022/10/08 14:07:33;;;;;;;4.30;1.70;;;;;;;;;;4980669;28;20186;-58
2022/10/08 14:10:02;;;;;;;3.40;2.07;;;;;;;;;;4983000;28;20444;-57
2022/10/08 14:12:31;;;;;;;3.40;1.57;;;;;;;;;;4973966;28;20487;-57
2022/10/08 14:14:57;;;;;;;2.63;1.20;;;;;;;;;;4951870;28;20514;-57
2022/10/08 14:17:23;;;;;;;8.13;1.70;;;;;;;;;;4983514;28;20452;-58
2022/10/08 14:19:49;;;;;;;3.70;1.33;;;;;;;;;;4970831;28;20691;-57
2022/10/08 14:22:15;;;;;;;3.20;1.30;;;;;;;;;;4984366;28;20437;-57
2022/10/08 14:24:41;;;;;;;4.13;1.10;;;;;;;;;;4956195;28;21047;-55
2022/10/08 14:27:07;;;;;;;2.33;1.03;;;;;;;;;;4973856;28;20429;-56
2022/10/08 14:29:34;;;;;;;2.87;1.50;;;;;;;;;;4962947;28;20868;-57
2022/10/08 14:31:59;;;;;;;2.93;1.20;;;;;;;;;;4978897;28;20484;-56
2022/10/08 14:34:36;;;;;;;4.67;1.27;;;;;;;;;;4971283;28;20436;-56
2022/10/08 14:37:06;;;;;;;3.47;1.07;;;;;;;;;;4962044;28;20456;-56
2022/10/08 14:39:32;;;;;;;4.83;1.30;;;;;;;;;;4974574;28;20524;-57
2022/10/08 14:41:58;;;;;;;1.67;1.23;;;;;;;;;;4958634;28;21226;-56
2022/10/08 14:44:24;;;;;;;3.97;1.50;;;;;;;;;;4978285;28;20473;-55
2022/10/08 14:46:51;;;;;;;2.07;1.07;;;;;;;;;;4955768;28;20798;-57
2022/10/08 14:49:17;;;;;;;2.47;1.00;;;;;;;;;;4987068;28;20471;-55